createdAt,value
2022-12-03T00:01:20.951Z,91.76
2022-12-03T00:03:49.017Z,92.74
2022-12-03T00:06:17.522Z,91.36
2022-12-03T00:08:45.569Z,91.51
2022-12-03T00:11:13.361Z,90.99
2022-12-03T00:13:41.102Z,91.00
2022-12-03T00:16:10.460Z,91.18
2022-12-03T00:18:38.592Z,90.90
2022-12-03T00:21:06.719Z,90.62
2022-12-03T00:23:40.144Z,91.36
2022-12-03T00:26:09.723Z,90.86
2022-12-03T00:28:37.617Z,90.55
2022-12-03T00:31:05.678Z,90.62
2022-12-03T00:33:34.984Z,89.48
2022-12-03T00:36:02.844Z,90.60
2022-12-03T00:38:30.823Z,89.79
2022-12-03T00:40:58.664Z,90.57
2022-12-03T00:43:26.402Z,89.99
2022-12-03T00:45:54.298Z,89.20
2022-12-03T00:48:22.099Z,89.64
2022-12-03T00:50:51.414Z,89.64
2022-12-03T00:53:19.396Z,90.59
2022-12-03T00:55:47.443Z,90.02
2022-12-03T00:58:15.241Z,89.13
2022-12-03T01:00:43.015Z,89.90
2022-12-03T01:03:10.837Z,89.56
2022-12-03T01:05:38.742Z,89.65
2022-12-03T01:08:08.033Z,88.67
2022-12-03T01:10:35.894Z,89.05
2022-12-03T01:13:03.659Z,89.50
2022-12-03T01:15:31.574Z,88.42
2022-12-03T01:17:59.427Z,88.40
2022-12-03T01:20:27.834Z,89.89
2022-12-03T01:22:55.718Z,88.02
2022-12-03T01:25:25.094Z,88.28
2022-12-03T01:27:53.130Z,88.97
2022-12-03T01:30:21.180Z,88.58
2022-12-03T01:32:48.055Z,88.37
2022-12-03T01:35:15.913Z,87.73
2022-12-03T01:37:43.782Z,87.29
2022-12-03T01:40:15.343Z,88.33
2022-12-03T01:42:45.041Z,87.00
2022-12-03T01:45:22.317Z,87.71
2022-12-03T01:47:50.415Z,87.90
2022-12-03T01:50:22.744Z,87.06
2022-12-03T01:52:50.767Z,87.54
2022-12-03T01:55:27.789Z,86.82
2022-12-03T01:58:00.259Z,87.16
2022-12-03T02:00:29.252Z,87.01
2022-12-03T02:02:59.165Z,87.04
2022-12-03T02:05:29.301Z,87.90
2022-12-03T02:07:58.313Z,87.44
2022-12-03T02:10:29.028Z,88.23
2022-12-03T02:13:02.242Z,86.98
2022-12-03T02:15:30.288Z,87.18
2022-12-03T02:17:58.704Z,86.63
2022-12-03T02:20:26.700Z,87.74
2022-12-03T02:23:04.231Z,86.91
2022-12-03T02:25:35.637Z,87.84
2022-12-03T02:28:05.883Z,87.86
2022-12-03T02:30:34.089Z,87.99
2022-12-03T02:33:03.149Z,87.34
2022-12-03T02:35:34.132Z,87.19
2022-12-03T02:38:10.465Z,87.58
2022-12-03T02:40:40.405Z,88.30
2022-12-03T02:43:07.613Z,87.31
2022-12-03T02:45:37.734Z,87.34
2022-12-03T02:48:10.192Z,88.29
2022-12-03T02:50:42.752Z,87.41
2022-12-03T02:53:14.160Z,87.34
2022-12-03T02:55:43.850Z,86.33
2022-12-03T02:58:12.745Z,88.03
2022-12-03T03:00:41.379Z,86.76
2022-12-03T03:03:10.005Z,86.99
2022-12-03T03:05:41.491Z,86.79
2022-12-03T03:08:11.291Z,87.90
2022-12-03T03:10:41.157Z,86.71
2022-12-03T03:13:12.430Z,85.93
2022-12-03T03:15:41.186Z,85.39
2022-12-03T03:18:10.459Z,85.62
2022-12-03T03:20:39.350Z,84.54
2022-12-03T03:23:14.173Z,85.13
2022-12-03T03:25:44.958Z,84.30
2022-12-03T03:28:15.182Z,84.56
2022-12-03T03:30:44.961Z,85.07
2022-12-03T03:33:14.296Z,85.30
2022-12-03T03:35:43.078Z,84.86
2022-12-03T03:38:11.236Z,85.93
2022-12-03T03:40:39.676Z,85.98
2022-12-03T03:43:08.204Z,85.15
2022-12-03T03:45:37.376Z,85.00
2022-12-03T03:48:05.348Z,86.81
2022-12-03T03:50:33.854Z,86.06
2022-12-03T03:53:03.578Z,85.97
2022-12-03T03:55:32.380Z,88.65
2022-12-03T03:58:00.601Z,86.09
2022-12-03T04:00:28.646Z,86.97
2022-12-03T04:02:57.774Z,86.20
2022-12-03T04:05:26.088Z,86.49
2022-12-03T04:07:53.907Z,86.94
2022-12-03T04:10:39.507Z,88.21
2022-12-03T04:13:07.543Z,88.08
2022-12-03T04:15:35.538Z,87.83
2022-12-03T04:18:22.534Z,87.24
2022-12-03T04:20:50.322Z,88.68
2022-12-03T04:23:17.203Z,87.55
2022-12-03T04:26:02.843Z,87.56
2022-12-03T04:28:48.120Z,86.85
2022-12-03T04:31:39.012Z,87.50
2022-12-03T04:34:25.616Z,86.84
2022-12-03T04:36:53.398Z,87.33
2022-12-03T04:39:21.283Z,86.78
2022-12-03T04:41:49.012Z,86.40
2022-12-03T04:44:36.096Z,86.32
2022-12-03T04:47:07.097Z,86.54
2022-12-03T04:49:37.702Z,88.03
2022-12-03T04:52:05.870Z,86.66
2022-12-03T04:54:34.130Z,87.16
2022-12-03T04:57:02.220Z,86.85
2022-12-03T04:59:30.328Z,86.63
2022-12-03T05:01:58.155Z,87.74
2022-12-03T05:04:26.553Z,87.60
2022-12-03T05:06:55.883Z,85.89
2022-12-03T05:09:23.721Z,85.68
2022-12-03T05:11:51.609Z,85.89
2022-12-03T05:14:19.653Z,85.88
2022-12-03T05:16:47.471Z,86.79
2022-12-03T05:19:15.382Z,85.52
2022-12-03T05:21:42.187Z,87.16
2022-12-03T05:24:11.723Z,85.88
2022-12-03T05:26:39.601Z,87.19
2022-12-03T05:29:07.482Z,86.15
2022-12-03T05:31:35.349Z,86.60
2022-12-03T05:34:03.097Z,86.75
2022-12-03T05:36:31.018Z,86.28
2022-12-03T05:38:58.877Z,87.97
2022-12-03T05:41:45.481Z,87.32
2022-12-03T05:44:17.378Z,86.54
2022-12-03T05:46:47.993Z,86.04
2022-12-03T05:49:15.861Z,88.04
2022-12-03T05:51:43.652Z,86.36
2022-12-03T05:54:11.414Z,85.86
2022-12-03T05:56:40.572Z,87.62
2022-12-03T05:59:08.465Z,88.28
2022-12-03T06:01:36.344Z,86.13
2022-12-03T06:04:04.260Z,86.02
2022-12-03T06:06:32.142Z,85.81
2022-12-03T06:09:00.234Z,88.49
2022-12-03T06:11:29.853Z,87.33
2022-12-03T06:13:59.189Z,85.41
2022-12-03T06:16:27.500Z,85.12
2022-12-03T06:18:55.396Z,86.66
2022-12-03T06:21:23.262Z,85.45
2022-12-03T06:23:50.977Z,85.57
2022-12-03T06:26:18.791Z,86.09
2022-12-03T06:28:47.620Z,86.92
2022-12-03T06:31:16.875Z,85.90
2022-12-03T06:33:44.826Z,85.64
2022-12-03T06:36:12.633Z,85.11
2022-12-03T06:38:40.390Z,85.72
2022-12-03T06:41:08.374Z,85.02
2022-12-03T06:43:36.265Z,85.43
2022-12-03T06:46:04.183Z,84.53
2022-12-03T06:48:33.394Z,85.76
2022-12-03T06:51:01.211Z,84.95
2022-12-03T06:53:29.062Z,84.93
2022-12-03T06:55:56.887Z,85.10
2022-12-03T06:58:24.684Z,85.17
2022-12-03T07:00:52.500Z,84.14
2022-12-03T07:03:20.343Z,84.20
2022-12-03T07:05:49.598Z,84.91
2022-12-03T07:08:17.492Z,85.06
2022-12-03T07:10:45.340Z,84.20
2022-12-03T07:13:13.326Z,84.18
2022-12-03T07:15:41.318Z,85.33
2022-12-03T07:18:09.306Z,83.89
2022-12-03T07:20:37.422Z,83.87
2022-12-03T07:23:08.867Z,83.60
2022-12-03T07:25:36.966Z,84.11
2022-12-03T07:28:05.514Z,83.77
2022-12-03T07:30:33.385Z,83.91
2022-12-03T07:33:01.283Z,83.37
2022-12-03T07:35:30.334Z,83.70
2022-12-03T07:37:58.147Z,83.79
2022-12-03T07:40:27.384Z,82.89
2022-12-03T07:42:55.373Z,83.20
2022-12-03T07:45:23.328Z,83.07
2022-12-03T07:47:51.095Z,83.01
2022-12-03T07:50:18.847Z,82.46
2022-12-03T07:52:46.626Z,81.55
2022-12-03T07:55:14.511Z,81.91
2022-12-03T07:57:43.627Z,81.46
2022-12-03T08:00:12.630Z,81.22
2022-12-03T08:02:40.525Z,80.25
2022-12-03T08:05:08.909Z,81.01
2022-12-03T08:07:36.829Z,80.38
2022-12-03T08:10:06.992Z,80.92
2022-12-03T08:12:40.904Z,80.65
2022-12-03T08:15:16.773Z,80.13
2022-12-03T08:17:45.840Z,79.88
2022-12-03T08:20:16.971Z,80.07
2022-12-03T08:22:46.531Z,80.44
2022-12-03T08:25:18.184Z,80.18
2022-12-03T08:27:45.967Z,80.52
2022-12-03T08:30:16.872Z,80.31
2022-12-03T08:32:44.961Z,80.40
2022-12-03T08:35:14.722Z,80.32
2022-12-03T08:37:42.917Z,80.40
2022-12-03T08:40:25.608Z,81.12
2022-12-03T08:42:53.387Z,80.74
2022-12-03T08:45:39.775Z,81.18
2022-12-03T08:48:32.554Z,80.47
2022-12-03T08:51:04.613Z,80.62
2022-12-03T08:53:37.977Z,80.64
2022-12-03T08:56:14.640Z,80.36
2022-12-03T08:58:44.370Z,80.33
2022-12-03T09:01:34.894Z,80.20
2022-12-03T09:04:31.948Z,79.59
2022-12-03T09:07:00.300Z,79.44
2022-12-03T09:09:28.572Z,79.05
2022-12-03T09:11:56.775Z,79.26
2022-12-03T09:14:24.761Z,79.18
2022-12-03T09:16:55.823Z,79.53
2022-12-03T09:19:25.167Z,78.84
2022-12-03T09:21:53.441Z,78.87
2022-12-03T09:24:21.937Z,79.43
2022-12-03T09:26:49.949Z,78.61
2022-12-03T09:29:17.922Z,79.42
2022-12-03T09:31:45.991Z,78.89
2022-12-03T09:34:15.579Z,78.71
2022-12-03T09:36:43.484Z,78.21
2022-12-03T09:39:12.885Z,78.39
2022-12-03T09:41:40.965Z,78.05
2022-12-03T09:44:15.781Z,78.58
2022-12-03T09:46:47.300Z,79.32
2022-12-03T09:49:19.685Z,78.46
2022-12-03T09:51:47.930Z,78.38
2022-12-03T09:54:24.103Z,77.57
2022-12-03T09:56:52.884Z,77.96
2022-12-03T09:59:22.871Z,77.89
2022-12-03T10:01:50.759Z,77.98
2022-12-03T10:04:20.582Z,78.33
2022-12-03T10:06:48.738Z,78.98
2022-12-03T10:09:23.481Z,79.07
2022-12-03T10:11:51.616Z,77.88
2022-12-03T10:14:20.860Z,78.79
2022-12-03T10:16:49.227Z,79.00
2022-12-03T10:19:23.987Z,78.58
2022-12-03T10:21:51.883Z,78.21
2022-12-03T10:24:23.103Z,78.29
2022-12-03T10:26:52.525Z,77.19
2022-12-03T10:29:22.591Z,78.35
2022-12-03T10:31:56.853Z,78.01
2022-12-03T10:34:30.444Z,77.79
2022-12-03T10:37:16.025Z,78.31
2022-12-03T10:40:01.361Z,77.75
2022-12-03T10:42:31.439Z,78.35
2022-12-03T10:45:24.126Z,78.06
2022-12-03T10:48:07.240Z,78.33
2022-12-03T10:50:37.117Z,78.68
2022-12-03T10:53:05.556Z,79.24
2022-12-03T10:55:39.714Z,78.92
2022-12-03T10:58:14.968Z,78.09
2022-12-03T11:00:42.924Z,79.25
2022-12-03T11:03:19.363Z,78.76
2022-12-03T11:05:49.054Z,79.07
2022-12-03T11:08:22.346Z,79.56
2022-12-03T11:10:58.563Z,78.31
2022-12-03T11:13:48.827Z,79.24
2022-12-03T11:17:08.930Z,78.86
2022-12-03T11:19:49.698Z,79.61
2022-12-03T11:22:38.823Z,78.96
2022-12-03T11:25:37.085Z,79.39
2022-12-03T11:28:32.515Z,79.29
2022-12-03T11:31:02.991Z,79.31
2022-12-03T11:33:32.324Z,79.06
2022-12-03T11:36:31.699Z,78.79
2022-12-03T11:39:09.518Z,78.62
2022-12-03T11:41:37.362Z,78.71
2022-12-03T11:44:30.141Z,79.14
2022-12-03T11:47:15.108Z,78.68
2022-12-03T11:49:49.955Z,78.16
2022-12-03T11:52:31.999Z,77.05
2022-12-03T11:55:04.345Z,78.25
2022-12-03T11:57:38.349Z,78.02
2022-12-03T12:00:20.571Z,78.25
2022-12-03T12:02:49.370Z,78.19
2022-12-03T12:05:20.521Z,78.23
2022-12-03T12:07:50.502Z,78.34
2022-12-03T12:10:40.068Z,77.88
2022-12-03T12:13:08.279Z,78.47
2022-12-03T12:15:44.214Z,78.29
2022-12-03T12:18:38.777Z,78.24
2022-12-03T12:21:42.377Z,78.67
2022-12-03T12:24:38.128Z,79.18
2022-12-03T12:27:08.399Z,79.61
2022-12-03T12:29:37.152Z,79.50
2022-12-03T12:32:15.275Z,78.83
2022-12-03T12:34:45.448Z,79.06
2022-12-03T12:37:15.237Z,79.74
2022-12-03T12:39:44.378Z,79.45
2022-12-03T12:42:34.558Z,79.49
2022-12-03T12:45:13.021Z,79.85
2022-12-03T12:47:47.401Z,79.57
2022-12-03T12:50:16.332Z,79.40
2022-12-03T12:52:53.336Z,79.82
2022-12-03T12:55:34.142Z,79.99
2022-12-03T12:58:06.811Z,79.50
2022-12-03T13:00:34.663Z,79.83
2022-12-03T13:03:04.661Z,79.50
2022-12-03T13:05:39.635Z,79.68
2022-12-03T13:08:22.069Z,78.90
2022-12-03T13:10:52.054Z,79.58
2022-12-03T13:13:26.739Z,78.64
2022-12-03T13:16:00.810Z,78.95
2022-12-03T13:18:34.155Z,77.80
2022-12-03T13:37:57.687Z,79.44
2022-12-03T13:40:35.406Z,79.69
2022-12-03T13:43:13.937Z,79.55
2022-12-03T13:45:59.686Z,79.84
2022-12-03T13:51:38.221Z,80.32
2022-12-03T13:54:20.920Z,79.60
2022-12-03T13:56:51.632Z,79.35
2022-12-03T13:59:26.454Z,79.53
2022-12-03T14:01:56.172Z,80.51
2022-12-03T14:04:26.826Z,80.19
2022-12-03T14:06:58.121Z,79.85
2022-12-03T14:09:31.317Z,79.38
2022-12-03T14:12:18.001Z,79.97
2022-12-03T14:14:47.501Z,80.21
2022-12-03T14:17:18.959Z,80.26
2022-12-03T14:19:49.640Z,80.19
2022-12-03T14:22:25.928Z,80.17
2022-12-03T14:24:58.710Z,80.42
2022-12-03T14:27:29.287Z,80.03
2022-12-03T14:32:53.282Z,80.46
2022-12-03T14:35:21.722Z,80.44
2022-12-03T14:40:53.284Z,81.20
2022-12-03T14:43:23.165Z,81.30
2022-12-03T14:45:51.526Z,81.58
2022-12-03T14:48:19.473Z,81.80
2022-12-03T14:50:47.397Z,81.86
2022-12-03T14:53:15.239Z,81.67
2022-12-03T14:55:45.543Z,81.27
2022-12-03T14:58:13.429Z,80.97
2022-12-03T15:00:41.247Z,81.69
2022-12-03T15:03:09.101Z,81.78
2022-12-03T15:05:37.038Z,81.37
2022-12-03T15:08:05.023Z,81.83
2022-12-03T15:10:33.096Z,82.47
2022-12-03T15:13:02.414Z,82.51
2022-12-03T15:15:30.312Z,81.75
2022-12-03T15:17:58.250Z,82.32
2022-12-03T15:20:26.126Z,82.45
2022-12-03T15:22:54.045Z,81.81
2022-12-03T15:25:25.476Z,81.46
2022-12-03T15:27:53.514Z,81.45
2022-12-03T15:30:22.791Z,82.14
2022-12-03T15:32:51.573Z,82.56
2022-12-03T15:35:32.132Z,82.77
2022-12-03T15:38:20.549Z,82.63
2022-12-03T15:40:48.998Z,82.07
2022-12-03T15:47:05.085Z,82.46
2022-12-03T15:49:38.977Z,82.16
2022-12-03T15:52:16.189Z,82.92
2022-12-03T15:55:09.150Z,82.64
2022-12-03T15:57:41.700Z,83.00
2022-12-03T16:00:16.933Z,82.92
2022-12-03T16:03:14.992Z,82.21
2022-12-03T16:05:43.714Z,82.34
2022-12-03T16:08:18.222Z,82.67
2022-12-03T16:10:54.519Z,82.11
2022-12-03T16:13:48.199Z,82.40
2022-12-03T16:16:31.649Z,82.28
2022-12-03T16:23:33.795Z,82.60
2022-12-03T16:26:23.861Z,82.54
2022-12-03T16:31:53.787Z,82.83
2022-12-03T16:34:58.202Z,82.69
2022-12-03T16:38:50.252Z,82.18
2022-12-03T16:41:32.670Z,82.92
2022-12-03T16:44:17.259Z,82.55
2022-12-03T16:46:53.619Z,82.69
2022-12-03T16:49:36.918Z,82.46
2022-12-03T17:38:05.837Z,83.67
2022-12-03T17:46:12.842Z,83.37
2022-12-03T17:57:04.462Z,83.53
2022-12-03T17:59:42.290Z,83.42
2022-12-03T18:02:19.878Z,82.37
2022-12-03T18:05:02.145Z,82.88
2022-12-03T18:07:43.967Z,82.32
2022-12-03T18:10:23.095Z,83.08
2022-12-03T18:12:59.816Z,83.08
2022-12-03T18:15:35.425Z,83.34
2022-12-03T18:21:02.654Z,83.13
2022-12-03T18:23:37.780Z,83.08
2022-12-03T18:28:58.498Z,82.26
2022-12-03T18:31:33.252Z,82.10
2022-12-03T18:34:09.694Z,82.67
2022-12-03T18:36:54.521Z,82.87
2022-12-03T18:39:36.567Z,82.54
2022-12-03T18:42:19.478Z,82.20
2022-12-03T18:45:00.021Z,82.62
2022-12-03T18:47:36.185Z,83.41
2022-12-03T18:53:42.249Z,82.39
2022-12-03T18:56:19.741Z,82.42
2022-12-03T18:59:03.179Z,82.69
2022-12-03T19:01:44.339Z,83.42
2022-12-03T19:04:26.672Z,82.55
2022-12-03T19:06:58.347Z,83.11
2022-12-03T19:09:34.635Z,82.88
2022-12-03T19:12:22.580Z,83.16
2022-12-03T19:14:52.688Z,82.30
2022-12-03T19:17:41.995Z,81.77
2022-12-03T19:23:08.929Z,82.15
2022-12-03T19:26:00.324Z,81.16
2022-12-03T19:28:51.720Z,80.91
2022-12-03T19:31:26.688Z,80.49
2022-12-03T19:37:22.470Z,80.78
2022-12-03T19:42:51.638Z,80.27
2022-12-03T19:45:33.769Z,79.37
2022-12-03T19:48:08.602Z,79.58
2022-12-03T19:50:43.843Z,79.39
2022-12-03T19:53:26.807Z,79.40
2022-12-03T19:55:56.757Z,79.08
2022-12-03T19:58:25.510Z,79.10
2022-12-03T20:00:57.177Z,79.62
2022-12-03T20:04:02.144Z,79.04
2022-12-03T20:06:35.931Z,79.45
2022-12-03T20:09:14.554Z,79.17
2022-12-03T20:11:58.836Z,79.60
2022-12-03T20:14:32.803Z,79.37
2022-12-03T20:17:05.900Z,78.90
2022-12-03T20:19:48.761Z,78.76
2022-12-03T20:22:25.918Z,78.66
2022-12-03T20:28:22.078Z,78.95
2022-12-03T20:31:11.752Z,78.89
2022-12-03T20:33:56.721Z,78.96
2022-12-03T20:36:32.262Z,78.80
2022-12-03T20:39:07.615Z,79.47
2022-12-03T20:41:45.459Z,78.52
2022-12-03T20:44:19.826Z,78.77
2022-12-03T20:46:53.217Z,78.63
2022-12-03T20:49:28.323Z,78.62
2022-12-03T20:52:02.817Z,78.99
2022-12-03T20:54:39.243Z,79.44
2022-12-03T20:57:11.113Z,78.84
2022-12-03T20:59:46.167Z,78.66
2022-12-03T21:02:21.091Z,79.42
2022-12-03T21:05:01.322Z,79.14
2022-12-03T21:07:48.716Z,78.94
2022-12-03T21:10:45.095Z,78.49
2022-12-03T21:13:14.345Z,79.28
2022-12-03T21:15:42.722Z,79.41
2022-12-03T21:18:12.315Z,79.66
2022-12-03T21:20:42.074Z,79.19
2022-12-03T21:23:10.642Z,79.44
2022-12-03T21:25:39.268Z,79.43
2022-12-03T21:28:08.862Z,79.13
2022-12-03T21:30:39.529Z,79.00
2022-12-03T21:33:08.056Z,79.54
2022-12-03T21:35:38.038Z,79.54
2022-12-03T21:38:08.501Z,79.53
2022-12-03T21:40:36.722Z,79.37
2022-12-03T21:43:04.847Z,79.31
2022-12-03T21:45:32.878Z,78.61
2022-12-03T21:48:01.046Z,78.81
2022-12-03T21:50:29.737Z,79.13
2022-12-03T21:52:57.846Z,79.35
2022-12-03T21:55:27.760Z,79.05
2022-12-03T21:58:11.836Z,79.30
2022-12-03T22:00:40.989Z,79.28
2022-12-03T22:03:09.019Z,79.09
2022-12-03T22:05:40.261Z,78.76
2022-12-03T22:08:08.745Z,78.66
2022-12-03T22:10:38.133Z,78.20
2022-12-03T22:20:29.143Z,79.08
2022-12-03T22:23:08.223Z,78.85
2022-12-03T22:25:57.072Z,78.65
2022-12-03T22:28:53.028Z,79.17
2022-12-03T22:35:10.042Z,78.16
2022-12-03T22:47:48.376Z,78.24
2022-12-03T22:50:25.070Z,78.84
2022-12-03T22:53:02.624Z,78.14
2022-12-03T23:02:40.030Z,78.67
2022-12-03T23:05:09.912Z,78.17
2022-12-03T23:07:37.922Z,78.31
2022-12-03T23:10:10.353Z,78.76
2022-12-03T23:12:38.192Z,78.35
2022-12-03T23:15:07.512Z,78.44
2022-12-03T23:17:36.075Z,78.27
2022-12-03T23:20:04.961Z,78.34
2022-12-03T23:22:34.259Z,78.49
2022-12-03T23:25:02.326Z,78.36
2022-12-03T23:27:30.509Z,77.92
2022-12-03T23:30:01.246Z,78.47
2022-12-03T23:32:29.349Z,78.68
2022-12-03T23:34:57.257Z,78.61
2022-12-03T23:37:26.793Z,79.33
2022-12-03T23:39:56.511Z,79.07
2022-12-03T23:42:27.146Z,78.53
2022-12-03T23:44:55.138Z,79.20
2022-12-03T23:47:27.811Z,79.29
2022-12-03T23:49:55.961Z,78.78
2022-12-03T23:52:24.387Z,78.82
2022-12-03T23:54:52.201Z,79.05
2022-12-03T23:57:23.782Z,79.45
2022-12-03T23:59:51.995Z,79.23
